createdAt,value
2017-03-20T12:52:55.031Z,23.21
2017-03-20T12:52:59.483Z,23.24
2017-03-20T12:53:03.925Z,23.29
2017-03-20T12:53:08.149Z,23.33
2017-03-20T12:53:12.357Z,23.39
2017-03-20T12:53:16.561Z,23.46
2017-03-20T12:53:20.656Z,23.54
2017-03-20T12:53:24.902Z,23.69
2017-03-20T12:53:29.115Z,23.79
2017-03-20T12:53:33.316Z,23.88
2017-03-20T12:53:37.516Z,23.98
2017-03-20T12:53:41.845Z,24.09
2017-03-20T12:53:46.161Z,24.23
2017-03-20T12:53:50.480Z,24.3
2017-03-20T12:53:54.561Z,24.33
2017-03-20T12:53:58.777Z,24.35
2017-03-20T12:54:02.980Z,24.4
2017-03-20T12:54:07.184Z,24.44
2017-03-20T12:54:11.506Z,24.49
2017-03-20T12:54:15.992Z,24.52
2017-03-20T12:54:20.080Z,24.55
2017-03-20T12:54:24.400Z,24.58
2017-03-20T12:54:28.487Z,24.62
2017-03-20T12:54:32.807Z,24.65
2017-03-20T12:54:37.120Z,24.7
2017-03-20T12:54:41.437Z,24.8
2017-03-20T12:54:45.769Z,24.9
2017-03-20T12:54:49.966Z,25.01
2017-03-20T12:54:54.186Z,25.11
2017-03-20T12:54:58.508Z,25.18
2017-03-20T12:55:02.823Z,25.24
2017-03-20T12:55:07.022Z,25.27
2017-03-20T12:55:11.282Z,25.35
2017-03-20T12:55:15.369Z,25.49
2017-03-20T12:55:19.585Z,25.72
2017-03-20T12:55:23.893Z,25.92
2017-03-20T12:55:28.209Z,26.09
2017-03-20T12:55:32.527Z,26.29
2017-03-20T12:55:36.836Z,26.5
2017-03-20T12:55:41.026Z,26.68
2017-03-20T12:55:44.870Z,26.84
2017-03-20T12:55:49.214Z,27.01
2017-03-20T12:55:53.410Z,27.13
2017-03-20T12:55:57.723Z,27.22
2017-03-20T12:56:02.036Z,27.2
2017-03-20T12:56:06.358Z,27.16
2017-03-20T12:56:10.785Z,27.11
2017-03-20T12:56:14.986Z,27.07
2017-03-20T12:56:19.308Z,27.04
2017-03-20T12:56:23.508Z,27.03
2017-03-20T12:56:27.825Z,27.01
2017-03-20T12:56:32.252Z,26.98
2017-03-20T12:56:36.569Z,26.96
2017-03-20T12:56:40.883Z,26.95
2017-03-20T12:56:45.076Z,26.94
2017-03-20T12:56:49.150Z,26.94
2017-03-20T12:56:53.467Z,26.94
2017-03-20T12:56:57.838Z,26.95
2017-03-20T12:57:02.082Z,26.94
2017-03-20T12:57:06.391Z,26.94
2017-03-20T12:57:10.708Z,26.92
2017-03-20T12:57:14.901Z,26.88
2017-03-20T12:57:19.103Z,26.85
2017-03-20T12:57:23.306Z,26.82
2017-03-20T12:57:27.622Z,26.78
2017-03-20T12:57:31.985Z,26.74
2017-03-20T12:57:36.309Z,26.71
2017-03-20T12:57:40.628Z,26.68
2017-03-20T12:57:44.952Z,26.63
2017-03-20T12:57:49.389Z,26.59
2017-03-20T12:57:53.471Z,26.57
2017-03-20T12:57:57.836Z,26.52
2017-03-20T12:58:02.034Z,26.48
2017-03-20T12:58:06.489Z,26.43
2017-03-20T12:58:10.697Z,26.4
2017-03-20T12:58:15.009Z,26.37
2017-03-20T12:58:19.344Z,26.35
2017-03-20T12:58:23.427Z,26.31
2017-03-20T12:58:27.736Z,26.29
2017-03-20T12:58:31.815Z,26.27
2017-03-20T12:58:35.911Z,26.23
2017-03-20T12:58:40.150Z,26.21
2017-03-20T12:58:44.580Z,26.18
2017-03-20T12:58:48.897Z,26.15
2017-03-20T12:58:53.348Z,26.1
2017-03-20T12:58:57.677Z,26.07
2017-03-20T12:59:01.979Z,26.05
2017-03-20T12:59:06.300Z,26.02
2017-03-20T12:59:10.537Z,25.98
2017-03-20T12:59:14.979Z,25.95
2017-03-20T12:59:19.064Z,25.92
2017-03-20T12:59:23.394Z,25.91
2017-03-20T12:59:27.731Z,25.88
2017-03-20T12:59:32.164Z,25.88
2017-03-20T12:59:36.608Z,25.86
2017-03-20T12:59:40.804Z,25.85
2017-03-20T12:59:45.120Z,25.85
2017-03-20T12:59:49.438Z,25.85
2017-03-20T12:59:53.878Z,25.88
2017-03-20T12:59:58.314Z,25.93
2017-03-20T13:00:02.641Z,26.01
2017-03-20T13:00:06.961Z,26.03
2017-03-20T13:00:11.276Z,26.06
2017-03-20T13:00:15.707Z,26.13
2017-03-20T13:00:20.094Z,26.19
2017-03-20T13:00:24.297Z,26.28
2017-03-20T13:00:28.618Z,26.37
2017-03-20T13:00:32.931Z,26.4
2017-03-20T13:00:37.250Z,26.39
2017-03-20T13:00:41.444Z,26.33
2017-03-20T13:00:45.765Z,26.28
2017-03-20T13:00:49.842Z,26.23
2017-03-20T13:00:54.039Z,26.19
2017-03-20T13:00:58.355Z,26.14
2017-03-20T13:01:02.673Z,26.09
2017-03-20T13:01:07.104Z,26.05
2017-03-20T13:01:11.418Z,26.02
2017-03-20T13:01:15.856Z,25.97
2017-03-20T13:01:19.932Z,25.93
2017-03-20T13:01:24.129Z,25.9
2017-03-20T13:01:28.328Z,25.86
2017-03-20T13:01:32.776Z,25.82
2017-03-20T13:01:37.094Z,25.78
2017-03-20T13:01:41.525Z,25.74
2017-03-20T13:01:45.835Z,25.7
2017-03-20T13:01:50.155Z,25.68
2017-03-20T13:01:54.463Z,25.65
2017-03-20T13:01:58.786Z,25.62
2017-03-20T13:02:03.211Z,25.59
2017-03-20T13:02:07.534Z,25.57
2017-03-20T13:02:11.733Z,25.54
2017-03-20T13:02:16.044Z,25.52
2017-03-20T13:02:20.240Z,25.49
2017-03-20T13:02:24.609Z,25.46
2017-03-20T13:02:28.805Z,25.43
2017-03-20T13:02:33.128Z,25.4
2017-03-20T13:02:37.446Z,25.39
2017-03-20T13:02:41.653Z,25.36
2017-03-20T13:02:46.093Z,25.34
2017-03-20T13:02:50.413Z,25.31
2017-03-20T13:02:54.736Z,25.29
2017-03-20T13:02:59.174Z,25.27
2017-03-20T13:03:03.503Z,25.24
2017-03-20T13:03:07.825Z,25.22
2017-03-20T13:03:12.261Z,25.19
2017-03-20T13:03:16.702Z,25.15
2017-03-20T13:03:20.901Z,25.13
2017-03-20T13:03:24.860Z,25.1
2017-03-20T13:03:29.059Z,25.08
2017-03-20T13:03:33.499Z,25.06
2017-03-20T13:03:37.941Z,25.03
2017-03-20T13:03:42.259Z,25.02
2017-03-20T13:03:46.701Z,25
2017-03-20T13:03:50.900Z,24.98
2017-03-20T13:03:55.390Z,24.95
2017-03-20T13:03:59.470Z,24.94
2017-03-20T13:04:03.901Z,24.92
2017-03-20T13:04:08.349Z,24.91
2017-03-20T13:04:12.546Z,24.89
2017-03-20T13:04:16.992Z,24.88
2017-03-20T13:04:21.091Z,24.87
2017-03-20T13:04:25.418Z,24.86
2017-03-20T13:04:29.625Z,24.87
2017-03-20T13:04:33.828Z,24.86
2017-03-20T13:04:38.142Z,24.85
2017-03-20T13:04:42.338Z,24.86
2017-03-20T13:04:46.768Z,24.85
2017-03-20T13:04:50.845Z,24.86
2017-03-20T13:04:54.926Z,24.86
2017-03-20T13:04:59.246Z,24.86
2017-03-20T13:05:03.888Z,24.86
2017-03-20T13:05:08.198Z,24.87
2017-03-20T13:05:12.518Z,24.88
2017-03-20T13:05:16.834Z,24.88
2017-03-20T13:05:21.146Z,24.89
2017-03-20T13:05:25.469Z,24.89
2017-03-20T13:05:29.670Z,24.91
2017-03-20T13:05:33.870Z,24.94
2017-03-20T13:05:37.948Z,24.95
2017-03-20T13:05:42.027Z,24.99
2017-03-20T13:05:46.357Z,25.03
2017-03-20T13:05:50.785Z,25.06
2017-03-20T13:05:55.095Z,25.12
2017-03-20T13:05:59.404Z,25.15
2017-03-20T13:06:03.865Z,25.18
2017-03-20T13:06:08.062Z,25.22
2017-03-20T13:06:12.488Z,25.24
2017-03-20T13:06:16.800Z,25.26
2017-03-20T13:06:21.004Z,25.33
2017-03-20T13:06:25.435Z,25.43
2017-03-20T13:06:29.762Z,25.45
2017-03-20T13:06:34.081Z,25.51
2017-03-20T13:06:38.436Z,25.57
2017-03-20T13:06:42.638Z,25.61
2017-03-20T13:06:46.957Z,25.67
2017-03-20T13:06:51.268Z,25.71
2017-03-20T13:06:55.593Z,25.78
2017-03-20T13:07:00.034Z,25.87
2017-03-20T13:07:04.444Z,25.94
2017-03-20T13:07:08.895Z,26.01
2017-03-20T13:07:13.259Z,26.09
2017-03-20T13:07:17.695Z,26.23
2017-03-20T13:07:21.772Z,26.43
2017-03-20T13:07:25.964Z,26.62
2017-03-20T13:07:30.174Z,26.79
2017-03-20T13:07:34.491Z,26.97
2017-03-20T13:07:38.935Z,27.16
2017-03-20T13:07:43.256Z,27.26
2017-03-20T13:07:47.695Z,27.31
2017-03-20T13:07:52.054Z,27.33
2017-03-20T13:07:56.510Z,27.34
2017-03-20T13:08:00.833Z,27.37
2017-03-20T13:08:05.146Z,27.42
2017-03-20T13:08:09.481Z,27.49
2017-03-20T13:08:13.840Z,27.57
2017-03-20T13:08:18.039Z,27.7
2017-03-20T13:08:22.241Z,27.84
2017-03-20T13:08:26.459Z,28
2017-03-20T13:08:30.781Z,28.14
2017-03-20T13:08:35.218Z,28.28
2017-03-20T13:08:39.662Z,28.42
2017-03-20T13:08:44.107Z,28.56
2017-03-20T13:08:48.539Z,28.68
2017-03-20T13:08:52.858Z,28.8
2017-03-20T13:08:57.175Z,28.91
2017-03-20T13:09:01.492Z,29
2017-03-20T13:09:06.183Z,29.14
2017-03-20T13:09:10.502Z,29.25
2017-03-20T13:09:14.822Z,29.34
2017-03-20T13:09:19.151Z,29.36
2017-03-20T13:09:23.505Z,29.4
2017-03-20T13:09:27.955Z,29.47
2017-03-20T13:09:32.395Z,29.57
2017-03-20T13:09:36.713Z,29.66
2017-03-20T13:09:40.910Z,29.74
2017-03-20T13:09:45.109Z,29.79
2017-03-20T13:09:49.547Z,29.83
2017-03-20T13:09:53.997Z,29.85
2017-03-20T13:09:58.435Z,29.86
2017-03-20T13:10:02.838Z,29.82
2017-03-20T13:10:07.039Z,29.75
2017-03-20T13:10:11.234Z,29.67
2017-03-20T13:10:15.553Z,29.6
2017-03-20T13:10:19.629Z,29.55
2017-03-20T13:10:23.705Z,29.51
2017-03-20T13:10:28.140Z,29.49
2017-03-20T13:10:32.447Z,29.49
2017-03-20T13:10:36.644Z,29.5
2017-03-20T13:10:40.967Z,29.51
2017-03-20T13:10:45.191Z,29.51
2017-03-20T13:10:49.502Z,29.5
2017-03-20T13:10:53.578Z,29.52
2017-03-20T13:10:57.892Z,29.53
2017-03-20T13:11:02.083Z,29.56
2017-03-20T13:11:06.515Z,29.57
2017-03-20T13:11:10.829Z,29.59
2017-03-20T13:11:15.146Z,29.59
2017-03-20T13:11:19.229Z,29.56
2017-03-20T13:11:23.304Z,29.58
2017-03-20T13:11:27.498Z,29.59
2017-03-20T13:11:31.922Z,29.63
2017-03-20T13:11:36.120Z,29.64
2017-03-20T13:11:40.443Z,29.68
2017-03-20T13:11:44.872Z,29.68
2017-03-20T13:11:49.063Z,29.73
2017-03-20T13:11:53.141Z,29.76
2017-03-20T13:11:57.455Z,29.79
2017-03-20T13:12:01.766Z,29.84
2017-03-20T13:12:05.969Z,29.86
2017-03-20T13:12:10.290Z,29.91
2017-03-20T13:12:14.723Z,29.98
2017-03-20T13:12:18.810Z,30.04
2017-03-20T13:12:23.012Z,30.1
2017-03-20T13:12:27.329Z,30.18
2017-03-20T13:12:31.528Z,30.25
2017-03-20T13:12:35.956Z,30.28
2017-03-20T13:12:40.282Z,30.35
2017-03-20T13:12:44.493Z,30.42
2017-03-20T13:12:48.818Z,30.47
2017-03-20T13:12:52.902Z,30.56
2017-03-20T13:12:57.110Z,30.59
2017-03-20T13:13:01.593Z,30.65
2017-03-20T13:13:06.049Z,30.67
2017-03-20T13:13:10.488Z,30.7
2017-03-20T13:13:14.803Z,30.72
2017-03-20T13:13:19.125Z,30.74
2017-03-20T13:13:23.337Z,30.7
2017-03-20T13:13:27.434Z,30.73
2017-03-20T13:13:31.645Z,30.72
2017-03-20T13:13:35.723Z,30.72
2017-03-20T13:13:39.814Z,30.71
2017-03-20T13:13:44.029Z,30.71
2017-03-20T13:13:48.474Z,30.75
2017-03-20T13:13:52.675Z,30.72
2017-03-20T13:13:57.124Z,30.73
2017-03-20T13:14:01.744Z,30.71
2017-03-20T13:14:05.976Z,30.67
2017-03-20T13:14:10.421Z,30.66
2017-03-20T13:14:14.627Z,30.62
2017-03-20T13:14:18.950Z,30.55
2017-03-20T13:14:23.265Z,30.5
2017-03-20T13:14:27.357Z,30.43
2017-03-20T13:14:31.454Z,30.34
2017-03-20T13:14:35.763Z,30.28
2017-03-20T13:14:40.198Z,30.21
2017-03-20T13:14:44.528Z,30.14
2017-03-20T13:14:48.847Z,30.08
2017-03-20T13:14:53.173Z,30
2017-03-20T13:14:57.378Z,29.94
2017-03-20T13:15:01.701Z,29.87
2017-03-20T13:15:06.029Z,29.81
2017-03-20T13:15:10.486Z,29.76
2017-03-20T13:15:14.918Z,29.7
2017-03-20T13:15:19.109Z,29.61
2017-03-20T13:15:22.956Z,29.53
2017-03-20T13:15:27.316Z,29.44
2017-03-20T13:15:31.505Z,29.35
2017-03-20T13:15:35.695Z,29.25
2017-03-20T13:15:39.897Z,29.15
2017-03-20T13:15:44.139Z,29.06
2017-03-20T13:15:48.567Z,28.96
2017-03-20T13:15:52.644Z,28.9
2017-03-20T13:15:57.084Z,28.81
2017-03-20T13:16:01.451Z,28.76
2017-03-20T13:16:05.649Z,28.7
2017-03-20T13:16:09.846Z,28.62
2017-03-20T13:16:14.286Z,28.55
2017-03-20T13:16:18.525Z,28.47
2017-03-20T13:16:22.834Z,28.39
2017-03-20T13:16:27.140Z,28.32
2017-03-20T13:16:31.334Z,28.25
2017-03-20T13:16:35.777Z,28.17
2017-03-20T13:16:40.211Z,28.06
2017-03-20T13:16:44.406Z,27.99
2017-03-20T13:16:48.721Z,27.91
2017-03-20T13:16:52.799Z,27.85
2017-03-20T13:16:57.119Z,27.75
2017-03-20T13:17:01.440Z,27.68
2017-03-20T13:17:05.877Z,27.61
2017-03-20T13:17:10.313Z,27.52
2017-03-20T13:17:14.631Z,27.46
2017-03-20T13:17:18.950Z,27.38
2017-03-20T13:17:23.080Z,27.32
2017-03-20T13:17:27.526Z,27.26
2017-03-20T13:17:31.838Z,27.2
2017-03-20T13:17:36.039Z,27.14
2017-03-20T13:17:40.255Z,27.09
2017-03-20T13:17:44.348Z,27.02
2017-03-20T13:17:48.671Z,26.98
2017-03-20T13:17:52.633Z,26.94
2017-03-20T13:17:57.079Z,26.89
2017-03-20T13:18:01.421Z,26.85
2017-03-20T13:18:05.748Z,26.83
2017-03-20T13:18:09.844Z,26.78
2017-03-20T13:18:14.052Z,26.76
2017-03-20T13:18:18.374Z,26.72
2017-03-20T13:18:22.490Z,26.69
2017-03-20T13:18:26.938Z,26.67
2017-03-20T13:18:31.286Z,26.65
2017-03-20T13:18:35.630Z,26.64
2017-03-20T13:18:39.954Z,26.62
2017-03-20T13:18:44.273Z,26.58
2017-03-20T13:18:48.768Z,26.58
2017-03-20T13:18:52.858Z,26.57
2017-03-20T13:18:57.315Z,26.56
2017-03-20T13:19:01.943Z,26.53
2017-03-20T13:19:06.190Z,26.5
2017-03-20T13:19:10.635Z,26.47
2017-03-20T13:19:14.959Z,26.43
2017-03-20T13:19:19.278Z,26.42
2017-03-20T13:19:23.364Z,26.4
2017-03-20T13:19:27.689Z,26.36
2017-03-20T13:19:32.011Z,26.34
2017-03-20T13:19:36.225Z,26.31
2017-03-20T13:19:40.311Z,26.28
2017-03-20T13:19:44.630Z,26.26
2017-03-20T13:19:48.949Z,26.23
2017-03-20T13:19:53.073Z,26.21
2017-03-20T13:19:57.283Z,26.19
2017-03-20T13:20:01.371Z,26.16
2017-03-20T13:20:05.717Z,26.15
2017-03-20T13:20:09.806Z,26.11
2017-03-20T13:20:14.238Z,26.1
2017-03-20T13:20:18.667Z,26.08
2017-03-20T13:20:22.872Z,26.06
2017-03-20T13:20:27.191Z,26.03
2017-03-20T13:20:31.511Z,26.02
2017-03-20T13:20:35.824Z,26
2017-03-20T13:20:40.017Z,25.97
2017-03-20T13:20:44.443Z,25.96
2017-03-20T13:20:48.642Z,25.94
2017-03-20T13:20:53.084Z,25.9
2017-03-20T13:20:57.169Z,25.84
2017-03-20T13:21:01.363Z,25.8
2017-03-20T13:21:06.097Z,25.76
2017-03-20T13:21:10.296Z,25.71
2017-03-20T13:21:14.727Z,25.66
2017-03-20T13:21:18.926Z,25.62
2017-03-20T13:21:22.651Z,25.59
2017-03-20T13:21:26.959Z,25.54
2017-03-20T13:21:31.275Z,25.49
2017-03-20T13:21:35.474Z,25.44
2017-03-20T13:21:39.787Z,25.41
2017-03-20T13:21:44.120Z,25.36
2017-03-20T13:21:48.437Z,25.32
2017-03-20T13:21:52.512Z,25.29
2017-03-20T13:21:56.824Z,25.23
2017-03-20T13:22:01.257Z,25.19
2017-03-20T13:22:05.538Z,25.15
2017-03-20T13:22:09.729Z,25.11
2017-03-20T13:22:13.925Z,25.08
2017-03-20T13:22:18.270Z,25.03
2017-03-20T13:22:22.357Z,25
2017-03-20T13:22:26.320Z,24.97
2017-03-20T13:22:30.516Z,24.94
2017-03-20T13:22:34.830Z,24.9
2017-03-20T13:22:39.035Z,24.88
2017-03-20T13:22:43.350Z,24.85
2017-03-20T13:22:47.788Z,24.83
2017-03-20T13:22:51.876Z,24.8
2017-03-20T13:22:56.338Z,24.79
2017-03-20T13:23:00.664Z,24.77
2017-03-20T13:23:05.201Z,24.75
2017-03-20T13:23:09.640Z,24.72
2017-03-20T13:23:13.965Z,24.7
2017-03-20T13:23:18.159Z,24.68
2017-03-20T13:23:22.360Z,24.66
2017-03-20T13:23:26.569Z,24.66
2017-03-20T13:23:30.903Z,24.64
2017-03-20T13:23:35.107Z,24.64
2017-03-20T13:23:39.553Z,24.63
2017-03-20T13:23:43.993Z,24.62
2017-03-20T13:23:48.445Z,24.62
2017-03-20T13:23:52.647Z,24.62
2017-03-20T13:23:57.091Z,24.62
2017-03-20T13:24:01.731Z,24.62
2017-03-20T13:24:06.056Z,24.61
2017-03-20T13:24:10.149Z,24.62
2017-03-20T13:24:14.470Z,24.64
2017-03-20T13:24:18.907Z,24.66
2017-03-20T13:24:23.277Z,24.68
2017-03-20T13:24:27.613Z,24.7
2017-03-20T13:24:31.933Z,24.73
2017-03-20T13:24:36.372Z,24.74
2017-03-20T13:24:40.695Z,24.77
2017-03-20T13:24:44.890Z,24.79
2017-03-20T13:24:49.325Z,24.81
2017-03-20T13:24:53.643Z,24.83
2017-03-20T13:24:57.975Z,24.88
2017-03-20T13:25:02.344Z,24.93
2017-03-20T13:25:06.653Z,24.99
2017-03-20T13:25:10.855Z,25.06
2017-03-20T13:25:15.178Z,25.13
2017-03-20T13:25:19.509Z,25.21
2017-03-20T13:25:23.834Z,25.29
2017-03-20T13:25:28.029Z,25.36
2017-03-20T13:25:32.463Z,25.43
2017-03-20T13:25:36.551Z,25.39
2017-03-20T13:25:40.991Z,25.35
2017-03-20T13:25:45.309Z,25.32
2017-03-20T13:25:49.752Z,25.28
2017-03-20T13:25:53.595Z,25.24
2017-03-20T13:25:57.828Z,25.2
2017-03-20T13:26:02.021Z,25.17
2017-03-20T13:26:06.357Z,25.12
2017-03-20T13:26:10.666Z,25.09
2017-03-20T13:26:14.988Z,25.06
2017-03-20T13:26:19.068Z,25.04
2017-03-20T13:26:23.502Z,25
2017-03-20T13:26:27.821Z,24.97
2017-03-20T13:26:32.138Z,24.96
2017-03-20T13:26:36.575Z,24.95
2017-03-20T13:26:41.010Z,24.96
2017-03-20T13:26:45.210Z,24.99
2017-03-20T13:26:49.519Z,25.04
2017-03-20T13:26:53.962Z,25.12
2017-03-20T13:26:58.164Z,25.2
2017-03-20T13:27:02.599Z,25.28
2017-03-20T13:27:06.923Z,25.35
2017-03-20T13:27:11.247Z,25.42
2017-03-20T13:27:15.560Z,25.5
2017-03-20T13:27:19.747Z,25.57
2017-03-20T13:27:24.068Z,25.65
2017-03-20T13:27:28.424Z,25.74
2017-03-20T13:27:32.853Z,25.83
2017-03-20T13:27:37.166Z,25.94
2017-03-20T13:27:41.498Z,26.04
2017-03-20T13:27:45.830Z,26.15
2017-03-20T13:27:50.147Z,26.23
2017-03-20T13:27:54.344Z,26.29
2017-03-20T13:27:58.668Z,26.37
2017-03-20T13:28:02.993Z,26.46
2017-03-20T13:28:07.076Z,26.52
2017-03-20T13:28:11.300Z,26.56
2017-03-20T13:28:15.499Z,26.62
2017-03-20T13:28:19.712Z,26.66
2017-03-20T13:28:24.043Z,26.72
2017-03-20T13:28:28.366Z,26.74
2017-03-20T13:28:32.797Z,26.8
2017-03-20T13:28:37.108Z,26.86
2017-03-20T13:28:41.428Z,26.93
2017-03-20T13:28:45.620Z,27.01
2017-03-20T13:28:49.939Z,27.09
2017-03-20T13:28:54.020Z,27.18
2017-03-20T13:28:58.121Z,27.28
2017-03-20T13:29:02.557Z,27.39
2017-03-20T13:29:06.999Z,27.46
2017-03-20T13:29:11.429Z,27.48
2017-03-20T13:29:15.796Z,27.48
2017-03-20T13:29:19.754Z,27.47
2017-03-20T13:29:23.828Z,27.46
2017-03-20T13:29:28.032Z,27.4
2017-03-20T13:29:32.234Z,27.4
2017-03-20T13:29:36.581Z,27.44
2017-03-20T13:29:41.039Z,27.49
2017-03-20T13:29:45.347Z,27.51
2017-03-20T13:29:49.431Z,27.54
2017-03-20T13:29:53.756Z,27.62
2017-03-20T13:29:58.071Z,27.67
2017-03-20T13:30:02.519Z,27.7
2017-03-20T13:30:06.486Z,27.75
2017-03-20T13:30:10.918Z,27.77
2017-03-20T13:30:15.230Z,27.75
2017-03-20T13:30:19.557Z,27.81
2017-03-20T13:30:23.984Z,27.9
2017-03-20T13:30:28.295Z,28.01
2017-03-20T13:30:32.724Z,28.08
2017-03-20T13:30:37.045Z,28.11
2017-03-20T13:30:41.525Z,28.09
2017-03-20T13:30:45.948Z,28.03
2017-03-20T13:30:50.138Z,27.97
2017-03-20T13:30:54.340Z,27.93
2017-03-20T13:30:58.777Z,27.92
2017-03-20T13:31:03.393Z,27.93
2017-03-20T13:31:07.830Z,28.01
2017-03-20T13:31:12.023Z,28.11
2017-03-20T13:31:16.339Z,28.2
2017-03-20T13:31:20.655Z,28.27
2017-03-20T13:31:24.968Z,28.34
2017-03-20T13:31:29.287Z,28.42
2017-03-20T13:31:33.603Z,28.47
2017-03-20T13:31:37.672Z,28.52
2017-03-20T13:31:41.979Z,28.57
2017-03-20T13:31:46.288Z,28.58
2017-03-20T13:31:50.725Z,28.62
2017-03-20T13:31:54.799Z,28.59
2017-03-20T13:31:59.234Z,28.58
2017-03-20T13:32:03.578Z,28.6
2017-03-20T13:32:07.785Z,28.64
2017-03-20T13:32:12.104Z,28.68
2017-03-20T13:32:16.537Z,28.75
2017-03-20T13:32:20.867Z,28.78
2017-03-20T13:32:25.297Z,28.82
2017-03-20T13:32:29.612Z,28.84
2017-03-20T13:32:33.930Z,28.86
2017-03-20T13:32:38.158Z,28.9
2017-03-20T13:32:42.491Z,28.94
2017-03-20T13:32:46.574Z,28.98
2017-03-20T13:32:50.901Z,28.99
2017-03-20T13:32:55.278Z,29.02
2017-03-20T13:32:59.595Z,29.07
2017-03-20T13:33:04.134Z,29.15
2017-03-20T13:33:08.571Z,29.22
2017-03-20T13:33:12.908Z,29.31
2017-03-20T13:33:17.155Z,29.27
2017-03-20T13:33:21.474Z,29.18
2017-03-20T13:33:25.672Z,29.08
2017-03-20T13:33:29.645Z,28.99
2017-03-20T13:33:34.083Z,28.9
2017-03-20T13:33:38.411Z,28.81
2017-03-20T13:33:42.732Z,28.72
2017-03-20T13:33:47.070Z,28.66
2017-03-20T13:33:51.385Z,28.61
2017-03-20T13:33:55.700Z,28.64
2017-03-20T13:34:00.138Z,28.7
2017-03-20T13:34:04.727Z,28.77
2017-03-20T13:34:09.077Z,28.84
2017-03-20T13:34:13.393Z,28.91
2017-03-20T13:34:17.829Z,28.98
2017-03-20T13:34:22.148Z,29.03
2017-03-20T13:34:26.469Z,29.1
2017-03-20T13:34:30.910Z,29.16
2017-03-20T13:34:35.343Z,29.2
2017-03-20T13:34:39.658Z,29.25
2017-03-20T13:34:43.976Z,29.3
2017-03-20T13:34:48.290Z,29.33
2017-03-20T13:34:52.369Z,29.38
2017-03-20T13:34:56.684Z,29.41
2017-03-20T13:35:01.020Z,29.43
2017-03-20T13:35:05.332Z,29.42
2017-03-20T13:35:09.643Z,29.43
2017-03-20T13:35:13.966Z,29.42
2017-03-20T13:35:18.050Z,29.43
2017-03-20T13:35:22.121Z,29.46
2017-03-20T13:35:26.436Z,29.48
2017-03-20T13:35:30.864Z,29.5
2017-03-20T13:35:35.191Z,29.52
2017-03-20T13:35:39.546Z,29.5
2017-03-20T13:35:43.862Z,29.49
2017-03-20T13:35:48.061Z,29.46
2017-03-20T13:35:52.508Z,29.45
2017-03-20T13:35:56.591Z,29.44
2017-03-20T13:36:01.017Z,29.46
2017-03-20T13:36:05.430Z,29.46
2017-03-20T13:36:09.625Z,29.43
2017-03-20T13:36:13.937Z,29.4
2017-03-20T13:36:18.129Z,29.35
2017-03-20T13:36:22.459Z,29.29
2017-03-20T13:36:26.784Z,29.23
2017-03-20T13:36:31.104Z,29.19
2017-03-20T13:36:35.428Z,29.15
2017-03-20T13:36:39.637Z,29.12
2017-03-20T13:36:44.078Z,29.1
2017-03-20T13:36:48.392Z,29.07
2017-03-20T13:36:52.475Z,29.03
2017-03-20T13:36:56.563Z,29.03
2017-03-20T13:37:00.888Z,29
2017-03-20T13:37:05.133Z,28.98
2017-03-20T13:37:09.445Z,28.95
2017-03-20T13:37:13.768Z,28.93
2017-03-20T13:37:18.081Z,28.91
2017-03-20T13:37:22.393Z,28.9
2017-03-20T13:37:26.836Z,28.89
2017-03-20T13:37:31.036Z,28.89
2017-03-20T13:37:35.239Z,28.87
2017-03-20T13:37:39.562Z,28.86
2017-03-20T13:37:43.881Z,28.85
2017-03-20T13:37:48.201Z,28.84
2017-03-20T13:37:52.396Z,28.84
2017-03-20T13:37:56.833Z,28.82
2017-03-20T13:38:01.148Z,28.81
2017-03-20T13:38:05.695Z,28.79
2017-03-20T13:38:10.142Z,28.76
2017-03-20T13:38:14.228Z,28.74
2017-03-20T13:38:18.665Z,28.68
2017-03-20T13:38:22.753Z,28.66
2017-03-20T13:38:27.106Z,28.64
2017-03-20T13:38:31.433Z,28.63
2017-03-20T13:38:35.755Z,28.61
2017-03-20T13:38:39.839Z,28.6
2017-03-20T13:38:44.046Z,28.59
2017-03-20T13:38:48.369Z,28.58
2017-03-20T13:38:52.564Z,28.58
2017-03-20T13:38:56.763Z,28.58
2017-03-20T13:39:01.195Z,28.59
2017-03-20T13:39:05.640Z,28.59
2017-03-20T13:39:09.844Z,28.61
2017-03-20T13:39:14.163Z,28.61
2017-03-20T13:39:18.477Z,28.62
2017-03-20T13:39:22.683Z,28.64
2017-03-20T13:39:27.036Z,28.63
2017-03-20T13:39:31.228Z,28.65
2017-03-20T13:39:35.542Z,28.66
2017-03-20T13:39:39.857Z,28.67
2017-03-20T13:39:43.943Z,28.67
2017-03-20T13:39:48.258Z,28.68
2017-03-20T13:39:52.338Z,28.68
2017-03-20T13:39:56.678Z,28.68
2017-03-20T13:40:01.141Z,28.69
2017-03-20T13:40:05.220Z,28.69
2017-03-20T13:40:09.652Z,28.69
2017-03-20T13:40:14.089Z,28.7
2017-03-20T13:40:18.412Z,28.7
2017-03-20T13:40:22.607Z,28.71
2017-03-20T13:40:26.924Z,28.73
2017-03-20T13:40:31.125Z,28.74
2017-03-20T13:40:35.433Z,28.76
2017-03-20T13:40:39.632Z,28.77
2017-03-20T13:40:43.943Z,28.79
2017-03-20T13:40:48.257Z,28.8
2017-03-20T13:40:52.343Z,28.82
2017-03-20T13:40:56.655Z,28.84
2017-03-20T13:41:00.845Z,28.84
2017-03-20T13:41:05.279Z,28.86
2017-03-20T13:41:09.723Z,28.87
2017-03-20T13:41:14.031Z,28.83
2017-03-20T13:41:18.347Z,28.87
2017-03-20T13:41:22.551Z,28.88
2017-03-20T13:41:26.881Z,28.9
2017-03-20T13:41:31.316Z,28.93
2017-03-20T13:41:35.507Z,28.97
2017-03-20T13:41:39.704Z,28.99
2017-03-20T13:41:43.895Z,29.02
2017-03-20T13:41:48.320Z,29.07
2017-03-20T13:41:52.402Z,29.13
2017-03-20T13:41:56.718Z,29.19
2017-03-20T13:42:01.145Z,29.25
2017-03-20T13:42:05.457Z,29.31
2017-03-20T13:42:09.773Z,29.36
2017-03-20T13:42:13.974Z,29.4
2017-03-20T13:42:18.405Z,29.46
2017-03-20T13:42:22.720Z,29.52
2017-03-20T13:42:27.173Z,29.56
2017-03-20T13:42:31.131Z,29.59
2017-03-20T13:42:35.564Z,29.63
2017-03-20T13:42:39.890Z,29.67
2017-03-20T13:42:44.099Z,29.71
2017-03-20T13:42:48.541Z,29.75
2017-03-20T13:42:52.620Z,29.79
2017-03-20T13:42:56.937Z,29.83
2017-03-20T13:43:01.367Z,29.86
2017-03-20T13:43:05.733Z,29.91
2017-03-20T13:43:09.931Z,29.94
2017-03-20T13:43:14.375Z,29.97
2017-03-20T13:43:18.697Z,30
2017-03-20T13:43:22.933Z,30.06
2017-03-20T13:43:27.371Z,30.1
2017-03-20T13:43:31.696Z,30.09
2017-03-20T13:43:36.128Z,30.06
2017-03-20T13:43:40.447Z,30.03
2017-03-20T13:43:44.764Z,30.01
2017-03-20T13:43:49.075Z,30
2017-03-20T13:43:53.509Z,29.96
2017-03-20T13:43:57.948Z,29.91
2017-03-20T13:44:02.150Z,29.86
2017-03-20T13:44:06.583Z,29.8
2017-03-20T13:44:11.033Z,29.75
2017-03-20T13:44:15.353Z,29.69
2017-03-20T13:44:19.432Z,29.64
2017-03-20T13:44:23.628Z,29.6
2017-03-20T13:44:27.836Z,29.55
2017-03-20T13:44:32.312Z,29.5
2017-03-20T13:44:36.747Z,29.44
2017-03-20T13:44:41.055Z,29.39
2017-03-20T13:44:45.253Z,29.35
2017-03-20T13:44:49.338Z,29.3
2017-03-20T13:44:53.537Z,29.26
2017-03-20T13:44:57.733Z,29.23
2017-03-20T13:45:02.477Z,29.2
2017-03-20T13:45:06.560Z,29.17
2017-03-20T13:45:10.877Z,29.14
2017-03-20T13:45:15.314Z,29.13
2017-03-20T13:45:19.645Z,29.13
2017-03-20T13:45:23.728Z,29.11
2017-03-20T13:45:27.923Z,29.09
2017-03-20T13:45:32.347Z,29.1
2017-03-20T13:45:36.427Z,29.08
2017-03-20T13:45:40.508Z,29.06
2017-03-20T13:45:44.825Z,29.07
2017-03-20T13:45:49.012Z,29.05
2017-03-20T13:45:53.439Z,29.06
2017-03-20T13:45:57.764Z,29.05
2017-03-20T13:46:02.081Z,29.06
2017-03-20T13:46:06.391Z,29.05
2017-03-20T13:46:10.597Z,29.04
2017-03-20T13:46:14.796Z,29.01
2017-03-20T13:46:19.243Z,29.01
2017-03-20T13:46:23.476Z,29
2017-03-20T13:46:27.679Z,29
2017-03-20T13:46:31.767Z,28.98
2017-03-20T13:46:35.968Z,28.98
2017-03-20T13:46:40.162Z,28.97
2017-03-20T13:46:44.356Z,28.96
2017-03-20T13:46:48.697Z,28.94
2017-03-20T13:46:52.894Z,28.93
2017-03-20T13:46:57.212Z,28.9
2017-03-20T13:47:01.947Z,28.88
2017-03-20T13:47:06.426Z,28.85
2017-03-20T13:47:10.746Z,28.83
2017-03-20T13:47:15.171Z,28.81
2017-03-20T13:47:19.621Z,28.78
2017-03-20T13:47:23.818Z,28.76
2017-03-20T13:47:28.150Z,28.72
2017-03-20T13:47:32.227Z,28.7
2017-03-20T13:47:36.555Z,28.68
2017-03-20T13:47:40.771Z,28.66
2017-03-20T13:47:45.085Z,28.65
2017-03-20T13:47:49.159Z,28.65
2017-03-20T13:47:53.245Z,28.65
2017-03-20T13:47:57.674Z,28.64
2017-03-20T13:48:01.994Z,28.63
2017-03-20T13:48:06.309Z,28.63
2017-03-20T13:48:10.753Z,28.62
2017-03-20T13:48:15.233Z,28.61
2017-03-20T13:48:19.313Z,28.61
2017-03-20T13:48:23.628Z,28.6
2017-03-20T13:48:27.715Z,28.59